Terminal Aerodrome Forecast
Issued by NWS Charleston, SC

Home | Current Version | Previous Version | Text Only | Print | Product List | Glossary On
Versions: 1 2 3 4 5 6 7 8 9 10 11 12 13 14 15 16 17 18 19 20 21 22 23 24 25 26 27 28 29 30 31
000
FTUS42 KCHS 041740
TAFCHS
TAF
KCHS 041740Z 0418/0518 20014G24KT P6SM FEW010 SCT040 SCT250
     FM042200 18012KT P6SM SCT050 SCT250
     FM050300 21007KT P6SM FEW050 SCT250 WS015/25035KT
     FM050900 21007KT 5SM BR SCT003 OVC010 WS015/25035KT
     FM051600 21012G20KT P6SM SCT020 BKN035=

USA.gov is the U.S. government's official web portal to all federal, state and local government web resources and services.